createdAt,value
2023-03-06T00:14:24.768Z,89.8
2023-03-06T00:34:24.701Z,91.4
2023-03-06T00:54:24.670Z,92.3
2023-03-06T01:34:24.622Z,92.7
2023-03-06T01:54:24.638Z,92.6
2023-03-06T02:14:24.566Z,93.1
2023-03-06T02:34:24.545Z,93.5
2023-03-06T03:34:24.485Z,93.7
2023-03-06T03:54:24.437Z,94.4
2023-03-06T04:14:24.420Z,94.1
2023-03-06T04:34:24.386Z,92.8
2023-03-06T04:54:24.360Z,93.7
2023-03-06T05:34:24.305Z,94.5
2023-03-06T06:54:24.218Z,92.7
2023-03-06T07:34:24.165Z,91.6
2023-03-06T08:14:24.117Z,92.6
2023-03-06T09:54:23.987Z,90.6
2023-03-06T10:14:23.963Z,88.8
2023-03-06T11:14:25.430Z,87.9
2023-03-06T11:34:23.861Z,85.2
2023-03-06T11:54:23.835Z,80.3
2023-03-06T12:14:23.799Z,78.7
2023-03-06T12:54:23.751Z,75.6
2023-03-06T13:14:23.715Z,68.9
2023-03-06T13:34:23.684Z,68.7
2023-03-06T13:54:23.741Z,67.2
2023-03-06T14:14:23.642Z,66.7
2023-03-06T14:34:23.593Z,63.8
2023-03-06T14:54:23.566Z,58.8
2023-03-06T15:14:23.557Z,55.4
2023-03-06T15:34:23.829Z,53.2
2023-03-06T15:54:23.476Z,53
2023-03-06T16:14:23.462Z,56.1
2023-03-06T16:34:23.441Z,65.5
2023-03-06T16:54:23.370Z,77.3
2023-03-06T17:14:23.377Z,81.6
2023-03-06T17:34:24.600Z,85.7
2023-03-06T17:54:23.293Z,86.9
2023-03-06T18:14:23.261Z,88.3
2023-03-06T18:34:23.241Z,85.1
2023-03-06T19:14:23.220Z,90.1
2023-03-06T19:34:23.172Z,88.8
2023-03-06T19:54:23.156Z,88
2023-03-06T20:14:23.123Z,86.7
2023-03-06T20:34:23.069Z,84.1
2023-03-06T20:54:23.054Z,84
2023-03-06T21:14:23.029Z,80.5
2023-03-06T21:34:23.015Z,80.4
2023-03-06T21:54:22.992Z,83.4
2023-03-06T22:14:22.958Z,83.9
2023-03-06T22:34:22.921Z,89.5
2023-03-06T22:54:22.913Z,92.5
2023-03-06T23:14:22.912Z,94.3
2023-03-06T23:34:22.827Z,95.3
2023-03-06T23:54:22.828Z,95.9
